Latest Weather Observations for Braidwood

IDN60901

Issued at 1:11 pm EST Monday 25 May 2015 (issued every 10 minutes, with the page automatically refreshed every 10 minutes)

About weather observations | Map of Canberra area stations | Latest observations for Canberra area | Other Formats
Station Details ID: 069132 Name: BRAIDWOOD RACECOURSE AWS Lat: -35.43 Lon: 149.78 Height: 665.2 m
Data from the previous 72 hours. | See also: Recent months at Braidwood
Date/Time
EST
Tmp

°C
App
Tmp
°C
Dew
Point
°C
Rel
Hum
%
Delta-T

°C
Wind Press
QNH
hPa
Press
MSL
hPa
Rain
since
9 am
mm
Dir
 
Spd
km/h
Gust
km/h
Spd
kts
Gust
kts
25/01:00pm 14.8 12.1 0.6 38 6.3 WNW 4 7 2 4 1028.8 1029.0 0.0
25/12:30pm 14.8 11.6 1.0 39 6.2 NW 7 13 4 7 1029.3 1029.5 0.0
25/12:00pm 13.5 10.9 3.3 50 4.7 NNW 6 9 3 5 1029.4 1029.6 0.0
25/11:30am 10.8 9.2 4.7 66 2.9 NNE 2 7 1 4 1029.8 1030.1 0.0
25/11:00am 10.8 9.1 5.8 71 2.4 N 4 9 2 5 1030.6 1030.8 0.0
25/10:30am 7.2 5.9 4.3 82 1.3 CALM 0 4 0 2 1030.8 1031.1 0.0
25/10:00am 5.6 4.2 3.3 85 1.0 CALM 0 2 0 1 1031.1 1031.4 0.0
25/09:30am 4.5 3.2 3.9 96 0.3 CALM 0 0 0 0 1031.2 1031.5 0.0
25/09:00am 2.4 0.7 1.8 96 0.2 CALM 0 0 0 0 1031.4 1031.7 0.0
25/08:30am 0.7 -1.3 0.1 96 0.2 CALM 0 0 0 0 1031.3 1031.6 0.0
25/08:00am -0.8 -3.0 -1.4 96 0.2 CALM 0 0 0 0 1031.0 1031.3 0.0
25/07:30am -1.5 -3.7 -1.9 97 0.1 CALM 0 0 0 0 1031.1 1031.4 0.0
25/07:00am -1.4 -3.6 -1.8 97 0.1 CALM 0 0 0 0 1031.4 1031.7 0.0
25/06:30am -2.0 -4.3 -2.6 96 0.1 CALM 0 0 0 0 1031.1 1031.4 0.0
25/06:00am -2.1 -4.4 -2.6 96 0.1 CALM 0 0 0 0 1030.9 1031.2 0.0
25/05:30am -2.2 -4.5 -2.6 97 0.0 CALM 0 0 0 0 1030.7 1030.9 0.0
25/05:00am -2.2 -4.5 -2.6 97 0.0 CALM 0 2 0 1 1030.7 1030.9 0.0
25/04:30am -2.3 -4.6 -2.7 97 0.0 CALM 0 0 0 0 1030.6 1030.8 0.0
25/04:00am -2.0 -4.3 -2.4 97 0.0 CALM 0 0 0 0 1030.8 1031.1 0.0
25/03:30am -2.5 -4.9 -2.9 97 0.0 CALM 0 0 0 0 1030.7 1030.9 0.0
25/03:00am -2.2 -4.5 -2.6 97 0.0 CALM 0 0 0 0 1030.8 1031.1 0.0
25/02:30am -2.8 -5.2 -3.3 96 0.0 CALM 0 0 0 0 1031.2 1031.5 0.0
25/02:00am -2.4 -4.8 -2.9 96 0.1 CALM 0 0 0 0 1031.5 1031.8 0.0
25/01:30am -2.5 -4.9 -3.2 95 0.1 CALM 0 0 0 0 1031.5 1031.8 0.0
25/01:00am -2.0 -4.3 -2.6 96 0.1 CALM 0 0 0 0 1031.5 1031.8 0.0
25/12:30am -1.0 -3.2 -1.6 96 0.2 CALM 0 0 0 0 1031.6 1031.9 0.0
25/12:00am -0.5 -2.6 -1.1 96 0.2 CALM 0 0 0 0 1031.9 1032.1 0.0
 
Date/Time
EST
Tmp

°C
App
Tmp
°C
Dew
Point
°C
Rel
Hum
%
Delta-T

°C
Wind Press
QNH
hPa
Press
MSL
hPa
Rain
since
9 am
mm
Dir
 
Spd
km/h
Gust
km/h
Spd
kts
Gust
kts
24/11:30pm -0.1 -2.2 -0.7 96 0.2 CALM 0 0 0 0 1032.1 1032.4 0.0
24/11:00pm 0.1 -2.0 -0.6 95 0.3 CALM 0 0 0 0 1032.1 1032.4 0.0
24/10:30pm 1.0 -0.9 0.3 95 0.3 CALM 0 0 0 0 1032.2 1032.5 0.0
24/10:00pm 1.5 -0.4 0.8 95 0.3 CALM 0 0 0 0 1032.1 1032.4 0.0
24/09:30pm 2.1 0.3 1.4 95 0.3 CALM 0 0 0 0 1032.3 1032.6 0.0
24/09:00pm 2.2 0.4 1.3 94 0.4 CALM 0 0 0 0 1032.2 1032.5 0.0
24/08:30pm 2.2 0.4 1.0 92 0.5 CALM 0 0 0 0 1032.1 1032.4 0.0
24/08:00pm 3.0 1.3 2.0 93 0.4 CALM 0 0 0 0 1031.9 1032.1 0.0
24/07:30pm 3.7 2.1 2.4 91 0.5 CALM 0 0 0 0 1031.6 1031.9 0.0
24/07:00pm 4.3 2.7 2.5 88 0.7 CALM 0 0 0 0 1031.7 1032.0 0.0
24/06:30pm 4.9 3.0 2.9 87 0.9 SSE 2 4 1 2 1031.5 1031.8 0.0
24/06:00pm 5.5 3.2 2.8 83 1.1 SSW 4 6 2 3 1031.3 1031.6 0.0
24/05:30pm 6.8 5.3 3.1 77 1.6 CALM 0 0 0 0 1031.1 1031.4 0.0
24/05:00pm 8.0 6.6 3.3 72 2.1 CALM 0 2 0 1 1030.9 1031.2 0.0
24/04:30pm 10.8 8.3 3.8 62 3.2 NE 6 9 3 5 1030.5 1030.7 0.0
24/04:00pm 13.2 10.4 3.0 50 4.7 NE 7 9 4 5 1030.4 1030.6 0.0
24/03:30pm 14.0 11.5 1.6 43 5.6 NNE 4 7 2 4 1030.3 1030.5 0.0
24/03:00pm 14.7 12.8 2.6 44 5.6 NNE 2 7 1 4 1030.4 1030.6 0.0
24/02:30pm 14.7 12.1 3.2 46 5.4 N 6 11 3 6 1030.4 1030.6 0.0
24/02:00pm 14.3 11.8 3.7 49 5.0 NNE 6 11 3 6 1030.4 1030.6 0.0
24/01:30pm 14.1 12.0 3.8 50 4.9 N 4 7 2 4 1030.6 1030.8 0.0
24/01:00pm 13.5 11.6 4.9 56 4.1 NNE 4 9 2 5 1030.6 1030.8 0.0
24/12:30pm 12.1 9.6 3.6 56 3.9 N 6 9 3 5 1031.1 1031.4 0.0
24/12:00pm 10.7 8.5 3.5 61 3.3 N 4 11 2 6 1031.4 1031.7 0.0
24/11:30am 9.2 7.2 4.4 72 2.2 N 4 7 2 4 1031.6 1031.9 0.0
24/11:00am 7.0 5.0 4.5 84 1.1 NNW 4 6 2 3 1032.1 1032.4 0.0
24/10:30am 5.2 4.0 4.8 97 0.2 CALM 0 0 0 0 1032.4 1032.7 0.0
24/10:00am 3.1 1.5 2.7 97 0.2 CALM 0 0 0 0 1032.4 1032.7 0.0
24/09:30am 0.9 -1.0 0.5 97 0.2 CALM 0 0 0 0 1032.6 1032.9 0.0
24/09:00am -0.6 -2.7 -1.0 97 0.1 CALM 0 0 0 0 1032.6 1032.9 0.4
24/08:30am -1.4 -3.6 -1.8 97 0.1 CALM 0 0 0 0 1032.5 1032.8 0.2
24/08:00am -2.0 -4.3 -2.4 97 0.0 CALM 0 0 0 0 1032.2 1032.5 0.2
24/07:30am -1.9 -4.2 -2.3 97 0.1 CALM 0 0 0 0 1031.9 1032.1 0.2
24/07:00am -1.9 -4.2 -2.3 97 0.1 CALM 0 0 0 0 1031.5 1031.8 0.2
24/06:30am -2.0 -4.3 -2.4 97 0.0 CALM 0 0 0 0 1031.2 1031.5 0.2
24/06:00am -1.5 -3.7 -1.9 97 0.1 CALM 0 0 0 0 1030.9 1031.2 0.2
24/05:30am -0.9 -3.1 -1.3 97 0.1 CALM 0 0 0 0 1030.7 1030.9 0.2
24/05:00am -0.5 -2.6 -0.9 97 0.1 CALM 0 0 0 0 1030.4 1030.6 0.2
24/04:30am -0.1 -2.2 -0.5 97 0.1 CALM 0 0 0 0 1030.4 1030.6 0.2
24/04:00am 0.7 -1.2 0.3 97 0.2 CALM 0 0 0 0 1030.1 1030.4 0.2
24/03:30am 0.9 -1.0 0.5 97 0.2 CALM 0 0 0 0 1030.1 1030.4 0.2
24/03:00am 1.3 -0.5 0.9 97 0.2 CALM 0 0 0 0 1030.4 1030.6 0.2
24/02:30am 0.9 -1.0 0.5 97 0.2 CALM 0 0 0 0 1030.4 1030.6 0.2
24/02:00am 0.6 -1.4 0.2 97 0.2 CALM 0 0 0 0 1030.3 1030.5 0.0
24/01:30am 0.1 -1.9 -0.3 97 0.2 CALM 0 0 0 0 1030.3 1030.5 0.0
24/01:00am -0.4 -2.5 -0.8 97 0.1 CALM 0 0 0 0 1030.0 1030.3 0.0
24/12:30am -1.0 -3.2 -1.4 97 0.1 CALM 0 0 0 0 1029.9 1030.2 0.0
24/12:00am -1.8 -4.1 -2.2 97 0.1 CALM 0 0 0 0 1029.9 1030.2 0.0
 
Date/Time
EST
Tmp

°C
App
Tmp
°C
Dew
Point
°C
Rel
Hum
%
Delta-T

°C
Wind Press
QNH
hPa
Press
MSL
hPa
Rain
since
9 am
mm
Dir
 
Spd
km/h
Gust
km/h
Spd
kts
Gust
kts
23/11:30pm -1.5 -3.7 -1.9 97 0.1 CALM 0 0 0 0 1030.0 1030.3 0.0
23/11:00pm -1.3 -3.5 -1.9 96 0.2 CALM 0 0 0 0 1029.8 1030.1 0.0
23/10:30pm -1.1 -3.3 -1.7 96 0.2 CALM 0 0 0 0 1029.8 1030.1 0.0
23/10:00pm -1.1 -3.3 -1.8 95 0.2 CALM 0 0 0 0 1030.0 1030.3 0.0
23/09:30pm 0.6 -2.1 0.0 96 0.2 N 4 6 2 3 1030.1 1030.4 0.0
23/09:00pm 1.2 -0.7 0.5 95 0.3 CALM 0 0 0 0 1030.1 1030.4 0.0
23/08:30pm 2.0 -0.9 1.3 95 0.3 NW 6 6 3 3 1030.1 1030.4 0.0
23/08:00pm 2.2 0.4 1.5 95 0.3 CALM 0 0 0 0 1029.9 1030.2 0.0
23/07:30pm 2.7 0.2 1.8 94 0.4 S 4 6 2 3 1029.8 1030.1 0.0
23/07:00pm 3.1 0.3 2.1 93 0.4 SSE 6 6 3 3 1029.8 1030.1 0.0
23/06:30pm 3.8 1.0 2.3 90 0.6 S 6 6 3 3 1029.5 1029.8 0.0
23/06:00pm 4.5 1.8 2.5 87 0.8 SE 6 6 3 3 1029.4 1029.6 0.0
23/05:30pm 6.2 4.1 3.7 84 1.1 SE 4 6 2 3 1029.3 1029.5 0.0
23/05:00pm 7.4 4.4 4.0 79 1.5 ESE 9 9 5 5 1028.9 1029.1 0.0
23/04:30pm 10.0 7.2 5.0 71 2.3 ESE 9 13 5 7 1028.7 1028.9 0.0
23/04:00pm 11.6 8.8 5.0 64 3.1 E 9 13 5 7 1028.4 1028.7 0.0
23/03:30pm 12.6 9.9 3.6 54 4.2 ESE 7 9 4 5 1028.3 1028.6 0.0
23/03:00pm 13.7 11.9 1.4 43 5.5 CALM 0 0 0 0 1028.2 1028.5 0.0
23/02:30pm 13.5 10.5 0.9 42 5.6 ENE 6 9 3 5 1028.1 1028.3 0.0
23/02:00pm 13.3 10.3 1.0 43 5.4 E 6 7 3 4 1028.0 1028.2 0.0
23/01:30pm 12.3 9.6 0.4 44 5.1 SE 4 9 2 5 1028.1 1028.3 0.0
23/01:00pm 12.9 10.9 2.5 49 4.7 E 2 6 1 3 1028.3 1028.6 0.0
23/12:30pm 12.3 9.8 1.6 48 4.7 SW 4 7 2 4 1028.7 1028.9 0.0
23/12:00pm 11.4 9.3 1.4 50 4.3 S 2 9 1 5 1029.2 1029.4 0.0
23/11:30am 11.1 8.9 3.2 58 3.6 SSW 4 7 2 4 1029.6 1029.9 0.0
23/11:00am 10.5 8.7 3.3 61 3.2 WNW 2 7 1 4 1030.1 1030.4 0.0
23/10:30am 10.4 8.6 3.4 62 3.2 W 2 6 1 3 1030.3 1030.5 0.0
23/10:00am 9.0 6.4 3.2 67 2.6 WSW 6 7 3 4 1030.3 1030.5 0.0
23/09:30am 8.0 5.5 3.5 73 2.0 SW 6 9 3 5 1030.1 1030.4 0.0
23/09:00am 6.7 5.2 3.0 77 1.6 CALM 0 2 0 1 1030.3 1030.5 0.2
23/08:30am 5.2 2.8 2.2 81 1.3 NNW 4 6 2 3 1030.1 1030.4 0.2
23/08:00am 4.0 2.2 1.2 82 1.1 CALM 0 0 0 0 1029.8 1030.1 0.2
23/07:30am 3.3 0.3 0.7 83 1.0 WSW 6 9 3 5 1029.5 1029.8 0.0
23/07:00am 3.0 0.4 0.7 85 0.9 SW 4 7 2 4 1029.2 1029.4 0.0
23/06:30am 3.1 0.9 0.8 85 0.9 SSW 2 4 1 2 1029.1 1029.3 0.0
23/06:00am 1.9 0.0 0.4 90 0.6 CALM 0 0 0 0 1028.8 1029.0 0.0
23/05:30am 1.4 -1.8 -0.2 89 0.6 W 6 7 3 4 1028.4 1028.7 0.0
23/05:00am 1.7 -1.7 -0.5 85 0.8 WSW 7 11 4 6 1028.5 1028.8 0.0
23/04:30am 2.5 0.2 0.6 87 0.7 WNW 2 6 1 3 1028.4 1028.7 0.0
23/04:00am 2.7 -0.3 0.8 87 0.7 WSW 6 9 3 5 1028.4 1028.7 0.0
23/03:30am 2.0 -1.2 0.8 92 0.5 WSW 7 11 4 6 1028.3 1028.6 0.0
23/03:00am 1.7 -0.5 1.0 95 0.3 SW 2 4 1 2 1028.3 1028.6 0.0
23/02:30am 1.0 -1.4 -0.1 92 0.4 S 2 2 1 1 1028.3 1028.6 0.0
23/02:00am 1.3 -1.4 0.1 92 0.5 SSE 4 4 2 2 1028.5 1028.8 0.0
23/01:30am 1.5 -1.6 -0.1 89 0.6 ESE 6 6 3 3 1028.3 1028.6 0.0
23/01:00am 3.9 0.8 1.4 84 1.0 SW 7 13 4 7 1027.9 1028.1 0.0
23/12:30am 2.4 0.6 1.4 93 0.4 CALM 0 0 0 0 1028.0 1028.2 0.0
23/12:00am 2.5 0.7 1.5 93 0.4 CALM 0 0 0 0 1028.0 1028.2 0.0
 
Date/Time
EST
Tmp

°C
App
Tmp
°C
Dew
Point
°C
Rel
Hum
%
Delta-T

°C
Wind Press
QNH
hPa
Press
MSL
hPa
Rain
since
9 am
mm
Dir
 
Spd
km/h
Gust
km/h
Spd
kts
Gust
kts
22/11:30pm 3.2 1.6 2.6 96 0.3 CALM 0 0 0 0 1027.9 1028.1 0.0
22/11:00pm 3.4 1.8 2.7 95 0.3 CALM 0 0 0 0 1027.9 1028.1 0.0
22/10:30pm 2.8 1.1 1.8 93 0.4 CALM 0 2 0 1 1027.8 1028.0 0.0
22/10:00pm 3.5 2.0 2.8 95 0.3 CALM 0 6 0 3 1027.7 1027.9 0.0
22/09:30pm 3.9 2.4 3.0 94 0.4 CALM 0 4 0 2 1027.6 1027.8 0.0
22/09:00pm 3.8 1.5 2.8 93 0.4 SSE 4 6 2 3 1027.4 1027.6 0.0
22/08:30pm 4.2 1.6 3.2 93 0.4 S 6 9 3 5 1027.0 1027.2 0.0
22/08:00pm 4.2 2.7 3.0 92 0.5 CALM 0 0 0 0 1027.0 1027.2 0.0
22/07:30pm 4.4 2.1 2.9 90 0.6 S 4 4 2 2 1026.7 1026.9 0.0
22/07:00pm 4.3 2.7 2.3 87 0.8 CALM 0 0 0 0 1026.7 1026.9 0.0
22/06:30pm 5.7 3.5 3.5 86 1.0 SSE 4 6 2 3 1026.4 1026.6 0.0
22/06:00pm 6.3 2.8 3.6 83 1.2 S 11 13 6 7 1026.1 1026.3 0.0
22/05:30pm 6.5 2.9 3.1 79 1.5 SSE 11 13 6 7 1025.7 1025.9 0.0
22/05:00pm 8.4 4.3 4.2 75 1.9 S 15 20 8 11 1025.6 1025.7 0.0
22/04:30pm 9.4 4.6 4.6 72 2.2 S 19 26 10 14 1025.2 1025.4 0.0
22/04:00pm 10.0 4.2 4.4 68 2.6 S 24 32 13 17 1024.6 1024.8 0.0
22/03:30pm 10.3 3.7 4.0 65 2.9 S 28 39 15 21 1024.4 1024.6 0.0
22/03:00pm 10.8 4.9 3.8 62 3.2 SSE 24 37 13 20 1024.1 1024.2 0.0
22/02:30pm 10.7 4.8 4.0 63 3.1 S 24 35 13 19 1023.9 1024.0 0.0
22/02:00pm 10.9 3.3 4.1 63 3.1 S 33 50 18 27 1023.4 1023.6 0.0
22/01:42pm 11.1 4.3 5.0 66 2.9 S 30 50 16 27 1023.2 1023.4 0.0
22/01:30pm 10.9 3.8 5.4 69 2.6 S 32 46 17 25 1023.2 1023.4 0.0

Latest Capital City Observations: Canberra | Sydney | Melbourne | Brisbane | Adelaide | Perth | Hobart | Darwin

Other Formats:

Comma delimited format used in spreadsheet applications
http://www.bom.gov.au/fwo/IDN60903/IDN60903.94927.axf

JavaScript Object Notation format (JSON) in row-major order
http://www.bom.gov.au/fwo/IDN60903/IDN60903.94927.json